sensor_id;sensor_type;location;lat;lon;timestamp;noise_LAeq;noise_LA_min;noise_LA_max;noise_LA01;noise_LA95
66888;Laerm;67239;51.680;5.976;2023-11-22T00:01:52;36.04;32.48;41.60;;
66888;Laerm;67239;51.680;5.976;2023-11-22T00:04:19;56.35;33.15;75.12;;
66888;Laerm;67239;51.680;5.976;2023-11-22T00:06:47;35.18;32.64;37.97;;
66888;Laerm;67239;51.680;5.976;2023-11-22T00:09:14;34.96;32.48;38.70;;
66888;Laerm;67239;51.680;5.976;2023-11-22T00:11:41;34.91;32.36;40.18;;
66888;Laerm;67239;51.680;5.976;2023-11-22T00:14:08;35.54;32.39;45.24;;
66888;Laerm;67239;51.680;5.976;2023-11-22T00:16:35;61.00;33.13;81.62;;
66888;Laerm;67239;51.680;5.976;2023-11-22T00:19:04;36.25;32.26;45.97;;
66888;Laerm;67239;51.680;5.976;2023-11-22T00:21:32;37.37;32.84;56.28;;
66888;Laerm;67239;51.680;5.976;2023-11-22T00:23:59;64.19;32.69;83.26;;
66888;Laerm;67239;51.680;5.976;2023-11-22T00:26:26;46.64;33.40;62.46;;
66888;Laerm;67239;51.680;5.976;2023-11-22T00:28:56;47.37;32.79;63.70;;
66888;Laerm;67239;51.680;5.976;2023-11-22T00:31:23;47.24;32.05;64.79;;
66888;Laerm;67239;51.680;5.976;2023-11-22T00:33:50;47.42;32.45;65.56;;
66888;Laerm;67239;51.680;5.976;2023-11-22T00:36:18;55.06;32.98;71.63;;
66888;Laerm;67239;51.680;5.976;2023-11-22T00:38:45;39.36;32.46;55.88;;
66888;Laerm;67239;51.680;5.976;2023-11-22T00:41:13;39.16;32.05;53.68;;
66888;Laerm;67239;51.680;5.976;2023-11-22T00:43:43;39.56;31.64;54.73;;
66888;Laerm;67239;51.680;5.976;2023-11-22T00:46:10;41.43;31.62;58.61;;
66888;Laerm;67239;51.680;5.976;2023-11-22T00:48:38;40.17;32.06;57.30;;
66888;Laerm;67239;51.680;5.976;2023-11-22T00:51:05;60.00;32.84;77.16;;
66888;Laerm;67239;51.680;5.976;2023-11-22T00:53:35;62.01;31.58;78.98;;
66888;Laerm;67239;51.680;5.976;2023-11-22T00:56:05;56.56;32.02;75.74;;
66888;Laerm;67239;51.680;5.976;2023-11-22T00:58:33;39.58;32.26;58.26;;
66888;Laerm;67239;51.680;5.976;2023-11-22T01:01:00;57.32;32.69;75.62;;
66888;Laerm;67239;51.680;5.976;2023-11-22T01:03:27;58.01;33.56;76.75;;
66888;Laerm;67239;51.680;5.976;2023-11-22T01:05:54;41.13;33.34;57.26;;
66888;Laerm;67239;51.680;5.976;2023-11-22T01:08:23;56.65;34.13;74.49;;
66888;Laerm;67239;51.680;5.976;2023-11-22T01:10:50;60.07;32.80;78.52;;
66888;Laerm;67239;51.680;5.976;2023-11-22T01:13:17;40.10;33.66;52.70;;
66888;Laerm;67239;51.680;5.976;2023-11-22T01:15:44;38.61;32.59;53.27;;
66888;Laerm;67239;51.680;5.976;2023-11-22T01:18:11;38.46;31.96;53.05;;
66888;Laerm;67239;51.680;5.976;2023-11-22T01:20:39;38.65;32.34;55.23;;
66888;Laerm;67239;51.680;5.976;2023-11-22T01:23:06;38.45;32.66;51.47;;
66888;Laerm;67239;51.680;5.976;2023-11-22T01:25:33;38.92;32.84;53.06;;
66888;Laerm;67239;51.680;5.976;2023-11-22T01:28:00;39.23;33.40;52.62;;
66888;Laerm;67239;51.680;5.976;2023-11-22T01:30:27;67.14;33.73;87.56;;
66888;Laerm;67239;51.680;5.976;2023-11-22T01:32:55;38.52;32.83;52.35;;
66888;Laerm;67239;51.680;5.976;2023-11-22T01:35:22;39.91;31.97;54.24;;
66888;Laerm;67239;51.680;5.976;2023-11-22T01:37:50;38.59;32.05;52.18;;
66888;Laerm;67239;51.680;5.976;2023-11-22T01:40:17;38.78;32.50;53.61;;
66888;Laerm;67239;51.680;5.976;2023-11-22T01:42:46;38.63;31.80;57.97;;
66888;Laerm;67239;51.680;5.976;2023-11-22T01:45:14;37.69;31.61;52.78;;
66888;Laerm;67239;51.680;5.976;2023-11-22T01:47:42;55.64;31.32;72.24;;
66888;Laerm;67239;51.680;5.976;2023-11-22T01:50:10;60.54;31.86;77.78;;
66888;Laerm;67239;51.680;5.976;2023-11-22T01:52:39;38.56;31.52;52.17;;
66888;Laerm;67239;51.680;5.976;2023-11-22T01:55:07;37.30;33.48;48.72;;
66888;Laerm;67239;51.680;5.976;2023-11-22T01:57:36;36.17;33.45;48.32;;
66888;Laerm;67239;51.680;5.976;2023-11-22T02:00:06;43.24;33.37;63.12;;
66888;Laerm;67239;51.680;5.976;2023-11-22T02:02:41;38.83;32.21;54.56;;
66888;Laerm;67239;51.680;5.976;2023-11-22T02:05:09;37.77;32.48;51.63;;
66888;Laerm;67239;51.680;5.976;2023-11-22T02:07:38;38.38;33.22;55.71;;
66888;Laerm;67239;51.680;5.976;2023-11-22T02:10:07;38.26;32.72;54.62;;
66888;Laerm;67239;51.680;5.976;2023-11-22T02:12:34;37.93;32.78;52.50;;
66888;Laerm;67239;51.680;5.976;2023-11-22T02:15:03;63.32;32.94;83.25;;
66888;Laerm;67239;51.680;5.976;2023-11-22T02:17:31;39.25;32.85;55.22;;
66888;Laerm;67239;51.680;5.976;2023-11-22T02:19:58;39.27;32.81;56.00;;
66888;Laerm;67239;51.680;5.976;2023-11-22T02:22:25;57.25;32.36;75.30;;
66888;Laerm;67239;51.680;5.976;2023-11-22T02:24:52;37.69;32.46;54.02;;
66888;Laerm;67239;51.680;5.976;2023-11-22T02:27:19;37.81;32.61;53.39;;
66888;Laerm;67239;51.680;5.976;2023-11-22T02:29:48;38.29;32.78;52.50;;
66888;Laerm;67239;51.680;5.976;2023-11-22T02:32:15;38.97;32.99;53.48;;
66888;Laerm;67239;51.680;5.976;2023-11-22T02:34:42;39.14;31.97;56.88;;
66888;Laerm;67239;51.680;5.976;2023-11-22T02:37:09;39.62;31.97;55.93;;
66888;Laerm;67239;51.680;5.976;2023-11-22T02:40:19;35.51;32.40;44.74;;
66888;Laerm;67239;51.680;5.976;2023-11-22T02:42:53;35.90;32.37;44.90;;
66888;Laerm;67239;51.680;5.976;2023-11-22T02:45:28;35.01;32.64;42.98;;
66888;Laerm;67239;51.680;5.976;2023-11-22T02:47:55;34.95;32.04;44.21;;
66888;Laerm;67239;51.680;5.976;2023-11-22T02:50:23;37.78;32.46;55.84;;
66888;Laerm;67239;51.680;5.976;2023-11-22T02:52:50;37.67;32.40;50.58;;
66888;Laerm;67239;51.680;5.976;2023-11-22T02:55:17;40.77;32.62;60.09;;
66888;Laerm;67239;51.680;5.976;2023-11-22T02:57:45;42.51;32.73;59.05;;
66888;Laerm;67239;51.680;5.976;2023-11-22T03:00:13;42.84;31.81;58.51;;
66888;Laerm;67239;51.680;5.976;2023-11-22T03:02:41;42.34;32.42;57.81;;
66888;Laerm;67239;51.680;5.976;2023-11-22T03:05:09;42.89;32.24;59.65;;
66888;Laerm;67239;51.680;5.976;2023-11-22T03:07:37;58.92;32.98;77.96;;
66888;Laerm;67239;51.680;5.976;2023-11-22T03:10:05;39.96;33.19;51.73;;
66888;Laerm;67239;51.680;5.976;2023-11-22T03:12:34;40.59;32.66;58.04;;
66888;Laerm;67239;51.680;5.976;2023-11-22T03:15:02;40.56;32.96;52.97;;
66888;Laerm;67239;51.680;5.976;2023-11-22T03:17:31;58.33;33.18;76.05;;
66888;Laerm;67239;51.680;5.976;2023-11-22T03:20:00;53.92;34.33;71.31;;
66888;Laerm;67239;51.680;5.976;2023-11-22T03:22:28;50.51;34.47;69.41;;
66888;Laerm;67239;51.680;5.976;2023-11-22T03:24:57;64.39;34.55;81.56;;
66888;Laerm;67239;51.680;5.976;2023-11-22T03:27:25;66.22;34.68;84.55;;
66888;Laerm;67239;51.680;5.976;2023-11-22T03:29:53;60.23;37.56;79.03;;
66888;Laerm;67239;51.680;5.976;2023-11-22T03:32:22;43.64;34.44;57.51;;
66888;Laerm;67239;51.680;5.976;2023-11-22T03:34:49;38.82;32.86;46.09;;
66888;Laerm;67239;51.680;5.976;2023-11-22T03:37:16;36.11;32.43;44.24;;
66888;Laerm;67239;51.680;5.976;2023-11-22T03:39:44;37.06;32.87;50.69;;
66888;Laerm;67239;51.680;5.976;2023-11-22T03:42:16;59.61;31.94;78.53;;
66888;Laerm;67239;51.680;5.976;2023-11-22T03:44:45;58.79;33.11;78.39;;
66888;Laerm;67239;51.680;5.976;2023-11-22T03:47:15;62.09;31.95;81.39;;
66888;Laerm;67239;51.680;5.976;2023-11-22T03:49:43;48.82;31.71;67.15;;
66888;Laerm;67239;51.680;5.976;2023-11-22T03:52:13;64.72;34.00;82.76;;
66888;Laerm;67239;51.680;5.976;2023-11-22T03:54:41;44.07;35.06;55.25;;
66888;Laerm;67239;51.680;5.976;2023-11-22T03:57:08;41.24;33.74;54.38;;
66888;Laerm;67239;51.680;5.976;2023-11-22T03:59:35;41.91;34.50;55.92;;
66888;Laerm;67239;51.680;5.976;2023-11-22T04:02:02;42.29;34.35;53.26;;
66888;Laerm;67239;51.680;5.976;2023-11-22T04:04:30;64.85;37.79;80.64;;
66888;Laerm;67239;51.680;5.976;2023-11-22T04:06:57;56.85;38.63;76.05;;
66888;Laerm;67239;51.680;5.976;2023-11-22T04:09:24;65.06;38.03;80.36;;
66888;Laerm;67239;51.680;5.976;2023-11-22T04:11:51;65.55;36.70;83.42;;
66888;Laerm;67239;51.680;5.976;2023-11-22T04:14:18;68.22;36.37;85.96;;
66888;Laerm;67239;51.680;5.976;2023-11-22T04:16:47;60.07;36.42;76.25;;
66888;Laerm;67239;51.680;5.976;2023-11-22T04:19:15;63.59;38.28;82.94;;
66888;Laerm;67239;51.680;5.976;2023-11-22T04:21:42;60.50;35.45;78.56;;
66888;Laerm;67239;51.680;5.976;2023-11-22T04:24:09;65.07;36.95;81.21;;
66888;Laerm;67239;51.680;5.976;2023-11-22T04:26:37;62.54;37.82;81.01;;
66888;Laerm;67239;51.680;5.976;2023-11-22T04:29:04;60.04;35.27;76.45;;
66888;Laerm;67239;51.680;5.976;2023-11-22T04:31:31;60.44;36.87;76.50;;
66888;Laerm;67239;51.680;5.976;2023-11-22T04:34:00;64.12;38.40;81.92;;
66888;Laerm;67239;51.680;5.976;2023-11-22T04:36:28;62.82;37.68;82.42;;
66888;Laerm;67239;51.680;5.976;2023-11-22T04:38:56;58.42;35.84;77.92;;
66888;Laerm;67239;51.680;5.976;2023-11-22T04:41:23;63.98;40.11;78.63;;
66888;Laerm;67239;51.680;5.976;2023-11-22T04:43:52;63.85;41.29;79.05;;
66888;Laerm;67239;51.680;5.976;2023-11-22T04:46:19;65.71;41.91;79.10;;
66888;Laerm;67239;51.680;5.976;2023-11-22T04:48:46;65.33;41.54;81.23;;
66888;Laerm;67239;51.680;5.976;2023-11-22T04:51:17;64.21;38.48;81.45;;
66888;Laerm;67239;51.680;5.976;2023-11-22T04:53:44;64.83;39.34;78.75;;
66888;Laerm;67239;51.680;5.976;2023-11-22T04:56:12;68.05;43.10;83.20;;
66888;Laerm;67239;51.680;5.976;2023-11-22T04:58:39;69.93;45.24;85.53;;
66888;Laerm;67239;51.680;5.976;2023-11-22T05:01:06;69.40;40.53;80.02;;
66888;Laerm;67239;51.680;5.976;2023-11-22T05:03:33;68.31;40.21;80.97;;
66888;Laerm;67239;51.680;5.976;2023-11-22T05:06:00;68.68;42.09;84.88;;
66888;Laerm;67239;51.680;5.976;2023-11-22T05:08:27;69.66;45.49;82.82;;
66888;Laerm;67239;51.680;5.976;2023-11-22T05:10:54;68.13;37.37;83.24;;
66888;Laerm;67239;51.680;5.976;2023-11-22T05:13:23;63.14;37.87;81.72;;
66888;Laerm;67239;51.680;5.976;2023-11-22T05:15:50;68.86;41.92;84.57;;
66888;Laerm;67239;51.680;5.976;2023-11-22T05:18:17;64.69;40.30;79.74;;
66888;Laerm;67239;51.680;5.976;2023-11-22T05:20:44;62.39;38.19;76.81;;
66888;Laerm;67239;51.680;5.976;2023-11-22T05:23:11;67.64;39.02;82.97;;
66888;Laerm;67239;51.680;5.976;2023-11-22T05:25:42;65.82;41.15;78.76;;
66888;Laerm;67239;51.680;5.976;2023-11-22T05:28:09;62.39;37.51;78.51;;
66888;Laerm;67239;51.680;5.976;2023-11-22T05:30:36;69.31;41.17;80.86;;
66888;Laerm;67239;51.680;5.976;2023-11-22T05:33:07;68.56;40.67;81.05;;
66888;Laerm;67239;51.680;5.976;2023-11-22T05:35:34;66.33;38.30;78.28;;
66888;Laerm;67239;51.680;5.976;2023-11-22T05:38:01;64.96;37.96;79.66;;
66888;Laerm;67239;51.680;5.976;2023-11-22T05:40:29;68.64;39.22;80.63;;
66888;Laerm;67239;51.680;5.976;2023-11-22T05:42:56;69.07;46.30;81.61;;
66888;Laerm;67239;51.680;5.976;2023-11-22T05:45:23;71.04;44.15;81.73;;
66888;Laerm;67239;51.680;5.976;2023-11-22T05:47:51;65.37;37.04;82.30;;
66888;Laerm;67239;51.680;5.976;2023-11-22T05:50:18;68.00;38.66;80.00;;
66888;Laerm;67239;51.680;5.976;2023-11-22T05:52:45;65.89;36.94;81.35;;
66888;Laerm;67239;51.680;5.976;2023-11-22T05:55:13;68.59;37.89;82.74;;
66888;Laerm;67239;51.680;5.976;2023-11-22T05:57:44;69.58;42.10;81.94;;
66888;Laerm;67239;51.680;5.976;2023-11-22T06:00:12;67.37;44.94;81.31;;
66888;Laerm;67239;51.680;5.976;2023-11-22T06:02:41;68.62;44.65;83.27;;
66888;Laerm;67239;51.680;5.976;2023-11-22T06:05:08;69.82;44.07;81.86;;
66888;Laerm;67239;51.680;5.976;2023-11-22T06:07:36;69.10;40.47;83.01;;
66888;Laerm;67239;51.680;5.976;2023-11-22T06:10:04;68.94;42.60;81.71;;
66888;Laerm;67239;51.680;5.976;2023-11-22T06:12:31;71.10;44.32;82.89;;
66888;Laerm;67239;51.680;5.976;2023-11-22T06:14:58;72.72;42.64;89.43;;
66888;Laerm;67239;51.680;5.976;2023-11-22T06:17:25;68.32;41.03;81.39;;
66888;Laerm;67239;51.680;5.976;2023-11-22T06:19:52;69.21;43.40;82.73;;
66888;Laerm;67239;51.680;5.976;2023-11-22T06:22:19;70.32;40.32;90.96;;
66888;Laerm;67239;51.680;5.976;2023-11-22T06:24:47;65.73;41.82;80.13;;
66888;Laerm;67239;51.680;5.976;2023-11-22T06:27:15;68.69;45.91;81.06;;
66888;Laerm;67239;51.680;5.976;2023-11-22T06:29:42;67.63;42.48;80.00;;
66888;Laerm;67239;51.680;5.976;2023-11-22T06:32:14;66.63;43.17;85.06;;
66888;Laerm;67239;51.680;5.976;2023-11-22T06:34:41;68.35;46.46;79.58;;
66888;Laerm;67239;51.680;5.976;2023-11-22T06:37:09;69.34;46.69;82.15;;
66888;Laerm;67239;51.680;5.976;2023-11-22T06:39:36;66.24;42.02;78.37;;
66888;Laerm;67239;51.680;5.976;2023-11-22T06:42:04;65.72;37.07;80.08;;
66888;Laerm;67239;51.680;5.976;2023-11-22T06:44:35;69.46;46.10;81.17;;
66888;Laerm;67239;51.680;5.976;2023-11-22T06:47:02;70.24;44.28;83.19;;
66888;Laerm;67239;51.680;5.976;2023-11-22T06:49:29;68.38;41.15;81.04;;
66888;Laerm;67239;51.680;5.976;2023-11-22T06:51:56;69.37;40.00;81.94;;
66888;Laerm;67239;51.680;5.976;2023-11-22T06:54:23;68.93;41.87;80.90;;
66888;Laerm;67239;51.680;5.976;2023-11-22T06:56:50;66.76;46.25;79.98;;
66888;Laerm;67239;51.680;5.976;2023-11-22T06:59:18;69.56;45.87;80.86;;
66888;Laerm;67239;51.680;5.976;2023-11-22T07:01:45;70.67;46.62;81.72;;
66888;Laerm;67239;51.680;5.976;2023-11-22T07:04:13;64.18;39.58;79.08;;
66888;Laerm;67239;51.680;5.976;2023-11-22T07:06:40;69.34;40.39;82.92;;
66888;Laerm;67239;51.680;5.976;2023-11-22T07:09:10;68.75;45.19;81.06;;
66888;Laerm;67239;51.680;5.976;2023-11-22T07:11:37;68.17;39.42;90.93;;
66888;Laerm;67239;51.680;5.976;2023-11-22T07:14:04;69.38;38.20;84.78;;
66888;Laerm;67239;51.680;5.976;2023-11-22T07:16:34;69.99;42.53;83.38;;
66888;Laerm;67239;51.680;5.976;2023-11-22T07:19:01;73.21;43.65;90.46;;
66888;Laerm;67239;51.680;5.976;2023-11-22T07:21:29;71.21;46.14;85.13;;
66888;Laerm;67239;51.680;5.976;2023-11-22T07:23:57;67.59;38.69;78.51;;
66888;Laerm;67239;51.680;5.976;2023-11-22T07:26:26;71.40;49.34;82.31;;
66888;Laerm;67239;51.680;5.976;2023-11-22T07:28:57;69.99;48.61;81.25;;
66888;Laerm;67239;51.680;5.976;2023-11-22T07:31:24;69.99;42.47;84.45;;
66888;Laerm;67239;51.680;5.976;2023-11-22T07:33:51;71.12;44.71;83.01;;
66888;Laerm;67239;51.680;5.976;2023-11-22T07:36:18;70.96;48.71;83.02;;
66888;Laerm;67239;51.680;5.976;2023-11-22T07:38:47;70.10;43.48;81.18;;
66888;Laerm;67239;51.680;5.976;2023-11-22T07:41:15;68.30;44.19;79.24;;
66888;Laerm;67239;51.680;5.976;2023-11-22T07:43:42;71.39;43.00;82.81;;
66888;Laerm;67239;51.680;5.976;2023-11-22T07:46:10;68.94;41.66;83.88;;
66888;Laerm;67239;51.680;5.976;2023-11-22T07:48:44;69.95;44.41;83.66;;
66888;Laerm;67239;51.680;5.976;2023-11-22T07:51:13;71.40;40.61;80.76;;
66888;Laerm;67239;51.680;5.976;2023-11-22T07:53:43;67.60;43.93;80.15;;
66888;Laerm;67239;51.680;5.976;2023-11-22T07:56:11;69.74;41.63;84.57;;
66888;Laerm;67239;51.680;5.976;2023-11-22T07:58:39;70.23;38.92;83.91;;
66888;Laerm;67239;51.680;5.976;2023-11-22T08:01:06;70.41;43.19;84.60;;
66888;Laerm;67239;51.680;5.976;2023-11-22T08:03:40;69.24;43.19;80.56;;
66888;Laerm;67239;51.680;5.976;2023-11-22T08:06:13;67.97;43.47;80.46;;
66888;Laerm;67239;51.680;5.976;2023-11-22T08:08:41;70.40;39.75;86.60;;
66888;Laerm;67239;51.680;5.976;2023-11-22T08:11:08;68.99;45.43;81.39;;
66888;Laerm;67239;51.680;5.976;2023-11-22T08:13:42;62.52;38.06;80.96;;
66888;Laerm;67239;51.680;5.976;2023-11-22T08:16:12;67.43;44.63;82.56;;
66888;Laerm;67239;51.680;5.976;2023-11-22T08:18:40;67.72;39.48;82.28;;
66888;Laerm;67239;51.680;5.976;2023-11-22T08:21:10;65.54;38.71;78.65;;
66888;Laerm;67239;51.680;5.976;2023-11-22T08:23:37;68.72;37.80;81.74;;
66888;Laerm;67239;51.680;5.976;2023-11-22T08:26:04;66.52;38.13;82.19;;
66888;Laerm;67239;51.680;5.976;2023-11-22T08:28:33;66.72;37.28;85.41;;
66888;Laerm;67239;51.680;5.976;2023-11-22T08:31:01;67.29;37.52;79.14;;
66888;Laerm;67239;51.680;5.976;2023-11-22T08:33:28;68.09;40.68;81.35;;
66888;Laerm;67239;51.680;5.976;2023-11-22T08:35:55;69.21;42.44;80.42;;
66888;Laerm;67239;51.680;5.976;2023-11-22T08:38:26;67.63;41.29;79.55;;
66888;Laerm;67239;51.680;5.976;2023-11-22T08:40:53;68.57;40.69;84.14;;
66888;Laerm;67239;51.680;5.976;2023-11-22T08:43:22;66.98;36.21;83.72;;
66888;Laerm;67239;51.680;5.976;2023-11-22T08:45:50;67.70;37.01;84.04;;
66888;Laerm;67239;51.680;5.976;2023-11-22T08:48:27;69.30;39.37;83.10;;
66888;Laerm;67239;51.680;5.976;2023-11-22T08:50:54;68.42;38.15;82.32;;
66888;Laerm;67239;51.680;5.976;2023-11-22T08:53:23;67.36;38.44;80.80;;
66888;Laerm;67239;51.680;5.976;2023-11-22T08:55:50;69.77;45.09;80.97;;
66888;Laerm;67239;51.680;5.976;2023-11-22T08:58:17;68.76;38.46;82.23;;
66888;Laerm;67239;51.680;5.976;2023-11-22T09:00:44;67.51;39.22;80.06;;
66888;Laerm;67239;51.680;5.976;2023-11-22T09:03:12;67.95;39.67;78.71;;
66888;Laerm;67239;51.680;5.976;2023-11-22T09:05:40;66.60;40.37;80.58;;
66888;Laerm;67239;51.680;5.976;2023-11-22T09:08:08;68.38;38.85;81.09;;
66888;Laerm;67239;51.680;5.976;2023-11-22T09:10:51;66.39;40.73;81.39;;
66888;Laerm;67239;51.680;5.976;2023-11-22T09:13:18;64.99;41.23;79.84;;
66888;Laerm;67239;51.680;5.976;2023-11-22T09:15:46;69.45;44.04;84.26;;
66888;Laerm;67239;51.680;5.976;2023-11-22T09:18:13;68.54;43.08;80.23;;
66888;Laerm;67239;51.680;5.976;2023-11-22T09:20:42;63.52;38.18;77.92;;
66888;Laerm;67239;51.680;5.976;2023-11-22T09:23:12;69.56;39.76;81.95;;
66888;Laerm;67239;51.680;5.976;2023-11-22T09:25:41;69.11;40.15;80.13;;
66888;Laerm;67239;51.680;5.976;2023-11-22T09:28:09;71.58;46.68;85.25;;
66888;Laerm;67239;51.680;5.976;2023-11-22T09:30:36;68.04;43.74;82.93;;
66888;Laerm;67239;51.680;5.976;2023-11-22T09:33:14;69.24;39.54;82.24;;
66888;Laerm;67239;51.680;5.976;2023-11-22T09:35:45;67.69;41.34;82.38;;
66888;Laerm;67239;51.680;5.976;2023-11-22T09:38:14;70.63;43.53;84.06;;
66888;Laerm;67239;51.680;5.976;2023-11-22T09:40:47;70.88;44.66;83.63;;
66888;Laerm;67239;51.680;5.976;2023-11-22T09:43:16;71.06;48.45;82.80;;
66888;Laerm;67239;51.680;5.976;2023-11-22T09:45:48;69.05;40.40;81.54;;
66888;Laerm;67239;51.680;5.976;2023-11-22T09:48:23;71.32;40.53;86.37;;
66888;Laerm;67239;51.680;5.976;2023-11-22T09:51:20;68.80;43.95;83.08;;
66888;Laerm;67239;51.680;5.976;2023-11-22T09:53:58;69.11;39.04;81.92;;
66888;Laerm;67239;51.680;5.976;2023-11-22T09:56:27;69.07;47.57;83.05;;
66888;Laerm;67239;51.680;5.976;2023-11-22T09:58:59;67.44;43.24;82.26;;
66888;Laerm;67239;51.680;5.976;2023-11-22T10:01:28;68.52;41.39;80.39;;
66888;Laerm;67239;51.680;5.976;2023-11-22T10:03:58;66.53;43.10;79.44;;
66888;Laerm;67239;51.680;5.976;2023-11-22T10:06:26;71.07;45.29;84.85;;
66888;Laerm;67239;51.680;5.976;2023-11-22T10:08:57;69.20;40.82;83.42;;
66888;Laerm;67239;51.680;5.976;2023-11-22T10:11:25;65.94;39.02;81.74;;
66888;Laerm;67239;51.680;5.976;2023-11-22T10:13:52;68.60;43.97;82.20;;
66888;Laerm;67239;51.680;5.976;2023-11-22T10:16:19;68.93;45.58;80.71;;
66888;Laerm;67239;51.680;5.976;2023-11-22T10:18:48;70.13;42.28;87.36;;
66888;Laerm;67239;51.680;5.976;2023-11-22T10:21:28;69.16;46.20;85.83;;
66888;Laerm;67239;51.680;5.976;2023-11-22T10:24:01;69.25;47.42;80.79;;
66888;Laerm;67239;51.680;5.976;2023-11-22T10:26:31;67.24;43.48;83.39;;
66888;Laerm;67239;51.680;5.976;2023-11-22T10:28:59;64.62;39.46;78.64;;
66888;Laerm;67239;51.680;5.976;2023-11-22T10:31:27;66.86;40.43;77.87;;
66888;Laerm;67239;51.680;5.976;2023-11-22T10:33:55;68.92;41.91;80.94;;
66888;Laerm;67239;51.680;5.976;2023-11-22T10:36:24;68.67;40.78;81.52;;
66888;Laerm;67239;51.680;5.976;2023-11-22T10:38:51;66.16;41.66;77.74;;
66888;Laerm;67239;51.680;5.976;2023-11-22T10:41:21;68.12;42.44;82.15;;
66888;Laerm;67239;51.680;5.976;2023-11-22T10:43:52;69.64;44.21;84.69;;
66888;Laerm;67239;51.680;5.976;2023-11-22T10:46:28;69.97;49.47;81.34;;
66888;Laerm;67239;51.680;5.976;2023-11-22T10:48:57;71.05;42.30;83.98;;
66888;Laerm;67239;51.680;5.976;2023-11-22T10:51:31;70.42;44.04;84.38;;
66888;Laerm;67239;51.680;5.976;2023-11-22T10:54:02;69.13;42.54;85.25;;
66888;Laerm;67239;51.680;5.976;2023-11-22T10:56:39;68.72;44.16;80.11;;
66888;Laerm;67239;51.680;5.976;2023-11-22T10:59:15;66.74;40.22;80.18;;
66888;Laerm;67239;51.680;5.976;2023-11-22T11:01:45;68.29;39.85;79.75;;
66888;Laerm;67239;51.680;5.976;2023-11-22T11:04:27;68.28;45.96;79.64;;
66888;Laerm;67239;51.680;5.976;2023-11-22T11:06:57;69.34;45.70;81.38;;
66888;Laerm;67239;51.680;5.976;2023-11-22T11:09:27;68.65;43.02;81.56;;
66888;Laerm;67239;51.680;5.976;2023-11-22T11:11:59;68.30;41.76;82.08;;
66888;Laerm;67239;51.680;5.976;2023-11-22T11:14:30;68.87;49.54;78.07;;
66888;Laerm;67239;51.680;5.976;2023-11-22T11:16:57;71.17;50.68;81.32;;
66888;Laerm;67239;51.680;5.976;2023-11-22T11:19:26;70.83;41.31;83.37;;
66888;Laerm;67239;51.680;5.976;2023-11-22T11:21:54;72.16;45.36;88.12;;
66888;Laerm;67239;51.680;5.976;2023-11-22T11:24:24;69.22;41.44;82.97;;
66888;Laerm;67239;51.680;5.976;2023-11-22T11:26:51;68.64;44.99;83.22;;
66888;Laerm;67239;51.680;5.976;2023-11-22T11:29:34;72.04;51.34;88.90;;
66888;Laerm;67239;51.680;5.976;2023-11-22T11:32:04;69.16;43.67;84.70;;
66888;Laerm;67239;51.680;5.976;2023-11-22T11:34:31;69.16;42.87;82.79;;
66888;Laerm;67239;51.680;5.976;2023-11-22T11:37:03;68.20;41.22;81.56;;
66888;Laerm;67239;51.680;5.976;2023-11-22T11:39:30;66.55;39.13;79.68;;
66888;Laerm;67239;51.680;5.976;2023-11-22T11:42:11;65.17;39.10;80.13;;
66888;Laerm;67239;51.680;5.976;2023-11-22T11:47:27;69.32;44.95;80.15;;
66888;Laerm;67239;51.680;5.976;2023-11-22T11:49:57;67.67;41.83;81.07;;
66888;Laerm;67239;51.680;5.976;2023-11-22T11:52:25;67.08;43.81;81.32;;
66888;Laerm;67239;51.680;5.976;2023-11-22T11:54:53;68.41;43.93;82.58;;
66888;Laerm;67239;51.680;5.976;2023-11-22T11:57:21;68.80;41.72;81.36;;
66888;Laerm;67239;51.680;5.976;2023-11-22T11:59:48;65.95;43.78;81.91;;
66888;Laerm;67239;51.680;5.976;2023-11-22T12:02:16;68.03;42.40;81.33;;
66888;Laerm;67239;51.680;5.976;2023-11-22T12:04:44;69.03;48.98;84.31;;
66888;Laerm;67239;51.680;5.976;2023-11-22T12:07:12;66.98;40.76;78.84;;
66888;Laerm;67239;51.680;5.976;2023-11-22T12:09:39;69.32;41.26;83.29;;
66888;Laerm;67239;51.680;5.976;2023-11-22T12:12:08;66.89;44.30;79.36;;
66888;Laerm;67239;51.680;5.976;2023-11-22T12:14:35;69.30;48.84;81.59;;
66888;Laerm;67239;51.680;5.976;2023-11-22T12:17:03;66.65;42.15;77.90;;
66888;Laerm;67239;51.680;5.976;2023-11-22T12:19:30;70.53;42.96;82.64;;
66888;Laerm;67239;51.680;5.976;2023-11-22T12:21:58;69.96;45.21;82.89;;
66888;Laerm;67239;51.680;5.976;2023-11-22T12:24:26;68.27;47.14;82.51;;
66888;Laerm;67239;51.680;5.976;2023-11-22T12:26:55;70.01;48.77;82.66;;
66888;Laerm;67239;51.680;5.976;2023-11-22T12:29:23;68.44;42.48;85.02;;
66888;Laerm;67239;51.680;5.976;2023-11-22T12:31:51;71.82;51.88;84.92;;
66888;Laerm;67239;51.680;5.976;2023-11-22T12:34:19;68.63;42.65;81.47;;
66888;Laerm;67239;51.680;5.976;2023-11-22T12:36:48;69.40;48.34;80.47;;
66888;Laerm;67239;51.680;5.976;2023-11-22T12:39:15;68.90;47.75;81.24;;
66888;Laerm;67239;51.680;5.976;2023-11-22T12:41:46;67.89;45.04;81.11;;
66888;Laerm;67239;51.680;5.976;2023-11-22T12:44:27;69.49;40.36;80.81;;
66888;Laerm;67239;51.680;5.976;2023-11-22T12:46:59;66.17;41.90;81.24;;
66888;Laerm;67239;51.680;5.976;2023-11-22T12:49:28;68.11;41.76;82.86;;
66888;Laerm;67239;51.680;5.976;2023-11-22T12:51:56;66.58;39.90;82.19;;
66888;Laerm;67239;51.680;5.976;2023-11-22T12:54:26;69.32;39.69;82.61;;
66888;Laerm;67239;51.680;5.976;2023-11-22T12:56:54;70.27;43.20;82.09;;
66888;Laerm;67239;51.680;5.976;2023-11-22T12:59:26;70.19;43.75;83.28;;
66888;Laerm;67239;51.680;5.976;2023-11-22T13:01:58;69.26;51.25;79.63;;
66888;Laerm;67239;51.680;5.976;2023-11-22T13:04:28;66.55;46.33;80.38;;
66888;Laerm;67239;51.680;5.976;2023-11-22T13:06:58;71.64;52.41;84.54;;
66888;Laerm;67239;51.680;5.976;2023-11-22T13:09:27;69.01;44.72;79.48;;
66888;Laerm;67239;51.680;5.976;2023-11-22T13:11:54;69.93;47.24;81.19;;
66888;Laerm;67239;51.680;5.976;2023-11-22T13:14:21;69.82;44.09;81.01;;
66888;Laerm;67239;51.680;5.976;2023-11-22T13:16:48;69.52;46.73;83.43;;
66888;Laerm;67239;51.680;5.976;2023-11-22T13:19:15;67.05;43.83;78.41;;
66888;Laerm;67239;51.680;5.976;2023-11-22T13:21:42;69.04;44.84;80.56;;
66888;Laerm;67239;51.680;5.976;2023-11-22T13:24:11;71.06;47.99;82.62;;
66888;Laerm;67239;51.680;5.976;2023-11-22T13:26:40;69.94;41.01;85.20;;
66888;Laerm;67239;51.680;5.976;2023-11-22T13:29:08;69.02;42.04;79.88;;
66888;Laerm;67239;51.680;5.976;2023-11-22T13:31:35;69.06;47.54;82.07;;
66888;Laerm;67239;51.680;5.976;2023-11-22T13:34:02;68.19;42.77;79.48;;
66888;Laerm;67239;51.680;5.976;2023-11-22T13:36:29;71.97;47.16;83.67;;
66888;Laerm;67239;51.680;5.976;2023-11-22T13:38:58;67.96;42.20;82.80;;
66888;Laerm;67239;51.680;5.976;2023-11-22T13:41:25;68.66;43.61;81.71;;
66888;Laerm;67239;51.680;5.976;2023-11-22T13:43:52;66.96;41.95;82.47;;
66888;Laerm;67239;51.680;5.976;2023-11-22T13:46:20;67.87;44.15;78.84;;
66888;Laerm;67239;51.680;5.976;2023-11-22T13:48:47;70.81;48.94;83.97;;
66888;Laerm;67239;51.680;5.976;2023-11-22T13:51:15;68.49;42.52;82.63;;
66888;Laerm;67239;51.680;5.976;2023-11-22T13:53:42;65.51;41.26;80.30;;
66888;Laerm;67239;51.680;5.976;2023-11-22T13:56:16;69.40;44.74;80.75;;